createdAt,value
2023-03-23T16:02:30.835Z,11.60
2023-03-23T16:05:02.814Z,11.50
2023-03-23T16:07:32.047Z,11.00
2023-03-23T16:10:01.276Z,11.80
2023-03-23T16:12:32.546Z,12.30
2023-03-23T16:15:02.212Z,17.50
2023-03-23T16:17:33.684Z,11.00
2023-03-23T16:20:10.546Z,9.60
2023-03-23T16:22:39.716Z,13.20
2023-03-23T16:25:12.879Z,16.00
2023-03-23T16:27:43.192Z,15.10
2023-03-23T16:30:25.414Z,17.60
2023-03-23T16:33:41.989Z,12.90
2023-03-23T16:36:13.795Z,12.40
2023-03-23T16:38:49.612Z,16.10
2023-03-23T16:41:21.124Z,19.50
2023-03-23T16:43:50.633Z,23.20
2023-03-23T16:46:22.802Z,30.70
2023-03-23T16:48:53.034Z,29.00
2023-03-23T16:51:22.296Z,29.10
2023-03-23T16:53:51.638Z,22.90
2023-03-23T16:56:23.308Z,32.00
2023-03-23T16:58:52.389Z,29.60
2023-03-23T17:01:22.228Z,20.00
2023-03-23T17:03:52.223Z,33.30
2023-03-23T17:06:21.631Z,21.10
2023-03-23T17:08:51.225Z,18.70
2023-03-23T17:11:24.157Z,16.30
2023-03-23T17:13:53.465Z,16.10
2023-03-23T17:16:23.534Z,14.00
2023-03-23T17:18:54.197Z,9.80
2023-03-23T17:21:26.245Z,13.80
2023-03-23T17:23:56.808Z,12.00
2023-03-23T17:26:29.074Z,15.80
2023-03-23T17:28:59.422Z,15.90
2023-03-23T17:31:29.086Z,15.20
2023-03-23T17:33:59.626Z,22.10
2023-03-23T17:36:28.858Z,14.80
2023-03-23T17:38:58.032Z,16.30
2023-03-23T17:41:28.316Z,17.60
2023-03-23T17:43:57.908Z,15.90
2023-03-23T17:46:27.699Z,19.40
2023-03-23T17:48:56.937Z,21.50
2023-03-23T17:51:26.203Z,24.00
2023-03-23T17:53:56.403Z,20.40
2023-03-23T17:56:26.953Z,21.00
2023-03-23T17:58:56.276Z,20.10
2023-03-23T18:01:26.235Z,24.00
2023-03-23T18:03:56.423Z,24.20
2023-03-23T18:06:26.285Z,22.30
2023-03-23T18:08:57.228Z,27.20
2023-03-23T18:11:28.080Z,23.10
2023-03-23T18:13:57.321Z,23.80
2023-03-23T18:16:28.096Z,23.80
2023-03-23T18:18:58.156Z,22.00
2023-03-23T18:21:34.993Z,26.70
2023-03-23T18:24:04.411Z,24.90
2023-03-23T18:26:44.251Z,20.00
2023-03-23T18:29:15.301Z,24.80
2023-03-23T18:31:46.000Z,27.30
2023-03-23T18:34:15.708Z,24.50
2023-03-23T18:36:48.107Z,25.40
2023-03-23T18:39:20.332Z,23.80
2023-03-23T18:41:52.890Z,26.70
2023-03-23T18:44:23.060Z,26.70
2023-03-23T18:46:52.136Z,27.50
2023-03-23T18:49:29.014Z,28.30
2023-03-23T18:52:01.897Z,26.30
2023-03-23T18:54:36.907Z,24.30
2023-03-23T18:57:08.454Z,26.40
2023-03-23T18:59:40.897Z,22.50
2023-03-23T19:09:07.527Z,25.20
2023-03-23T19:11:36.950Z,26.80
2023-03-23T19:14:07.127Z,25.60
2023-03-23T19:16:36.342Z,32.00
2023-03-23T19:19:08.612Z,28.40
2023-03-23T19:21:40.354Z,28.00
2023-03-23T19:24:10.356Z,26.40
2023-03-23T19:26:43.539Z,28.20
2023-03-23T19:31:50.030Z,29.60
2023-03-23T19:34:19.781Z,26.50
2023-03-23T19:36:59.628Z,20.80
2023-03-23T19:39:35.410Z,26.70
2023-03-23T19:42:08.141Z,23.30
2023-03-23T19:44:41.960Z,25.30
2023-03-23T19:47:14.124Z,23.20
2023-03-23T19:49:47.441Z,25.90
2023-03-23T19:52:18.746Z,21.10
2023-03-23T19:54:48.373Z,24.40
2023-03-23T19:57:18.268Z,27.80
2023-03-23T19:59:48.199Z,26.50
2023-03-23T20:02:27.837Z,22.30
2023-03-23T20:05:00.736Z,18.50
2023-03-23T20:09:59.665Z,21.80
2023-03-23T20:12:30.962Z,21.50
2023-03-23T20:15:00.653Z,23.30
2023-03-23T20:17:31.644Z,23.10
2023-03-23T20:20:01.700Z,24.70
2023-03-23T20:22:33.655Z,24.20
2023-03-23T20:25:03.397Z,21.30
2023-03-23T20:27:40.421Z,19.40
2023-03-23T20:30:12.221Z,22.30
2023-03-23T20:32:41.868Z,23.10
2023-03-23T20:35:13.025Z,21.50
2023-03-23T20:37:42.823Z,21.90
2023-03-23T20:40:17.680Z,20.80
2023-03-23T20:42:53.139Z,28.40
2023-03-23T20:45:22.870Z,24.40
2023-03-23T20:47:52.993Z,22.80
2023-03-23T20:50:22.988Z,29.20
2023-03-23T20:52:53.385Z,23.60
2023-03-23T20:55:23.066Z,27.30
2023-03-23T20:57:52.879Z,23.40
2023-03-23T21:00:26.561Z,23.40
2023-03-23T21:02:56.242Z,27.20
2023-03-23T21:05:26.524Z,23.70
2023-03-23T21:07:58.506Z,25.50
2023-03-23T21:10:29.106Z,21.90
2023-03-23T21:12:59.017Z,23.00
2023-03-23T21:15:32.496Z,21.70
2023-03-23T21:18:02.019Z,28.10
2023-03-23T21:20:31.535Z,22.00
2023-03-23T21:23:08.224Z,25.60
2023-03-23T21:25:38.602Z,23.00
2023-03-23T21:28:09.650Z,21.20
2023-03-23T21:30:46.284Z,18.70
2023-03-23T21:33:17.760Z,17.60
2023-03-23T21:35:47.595Z,23.30
2023-03-23T21:38:20.389Z,16.70
2023-03-23T21:40:52.111Z,18.70
2023-03-23T21:43:27.880Z,19.30
2023-03-23T21:46:03.449Z,16.90
2023-03-23T21:48:33.599Z,20.80
2023-03-23T21:51:10.077Z,18.80
2023-03-23T21:53:39.508Z,19.50
2023-03-23T21:56:11.058Z,22.20
2023-03-23T21:58:43.066Z,19.30
2023-03-23T22:01:22.697Z,21.90
2023-03-23T22:03:52.187Z,24.20
2023-03-23T22:06:27.421Z,24.50
2023-03-23T22:08:57.836Z,21.60
2023-03-23T22:11:31.720Z,22.90
2023-03-23T22:14:01.764Z,26.10
2023-03-23T22:16:31.729Z,24.60
2023-03-23T22:19:02.766Z,31.30
2023-03-23T22:21:35.045Z,21.50
2023-03-23T22:26:34.088Z,24.60
2023-03-23T22:29:05.077Z,25.60
2023-03-23T22:31:35.794Z,25.00
2023-03-23T22:34:06.861Z,25.30
2023-03-23T22:36:36.604Z,21.90
2023-03-23T22:39:08.002Z,24.00
2023-03-23T22:41:41.494Z,22.00
2023-03-23T22:44:18.963Z,21.00
2023-03-23T22:46:48.529Z,21.50
2023-03-23T22:49:18.428Z,22.80
2023-03-23T22:51:47.797Z,21.90
2023-03-23T22:54:17.478Z,20.20
2023-03-23T22:56:46.861Z,21.90
2023-03-23T22:59:17.968Z,20.50
2023-03-23T23:01:47.249Z,23.00
2023-03-23T23:04:17.890Z,20.40
2023-03-23T23:06:47.573Z,19.80
2023-03-23T23:09:17.508Z,19.30
2023-03-23T23:11:46.704Z,20.00
2023-03-23T23:14:16.206Z,22.60
2023-03-23T23:16:46.770Z,21.00
2023-03-23T23:19:17.026Z,18.40
2023-03-23T23:21:46.717Z,18.80
2023-03-23T23:24:17.107Z,17.60
2023-03-23T23:26:46.767Z,17.10
2023-03-23T23:29:16.683Z,15.40
2023-03-23T23:31:47.506Z,17.00
2023-03-23T23:34:16.587Z,18.90
2023-03-23T23:36:47.225Z,20.10
2023-03-23T23:39:17.048Z,14.90
2023-03-23T23:41:46.688Z,13.30
2023-03-23T23:44:17.206Z,15.10
2023-03-23T23:46:46.567Z,17.30
2023-03-23T23:49:16.492Z,14.60
2023-03-23T23:51:46.424Z,13.80
2023-03-23T23:54:24.141Z,13.70
2023-03-23T23:56:54.037Z,12.90
2023-03-23T23:59:23.728Z,14.20
